Aviation Digital Data Service (ADDS)

Output produced by METARs form (1201 UTC 25 June 2019)
found at http://www.aviationweather.gov/metar/data/
 
METAR text: SLCB 251100Z 19003KT 6000 NSC 01/M03 Q1022
Conditions at: SLCB (COCHABAMBA/JORGE, BO) observed 1100 UTC 25 June 2019
Temperature: 1.0°C (34°F)
Dewpoint: -3.0°C (27°F) [RH = 75%]
Pressure (altimeter): 30.18 inches Hg (1022.0 mb)
Winds: from the S (190 degrees) at 3 MPH (3 knots; 1.5 m/s)
Visibility: 4 miles ( 6 km)
Ceiling: at least 12,000 feet AGL
Clouds: sky clear below 12,000 feet AGL
Weather: no significant weather observed at this time

METAR text: SLCB 251000Z 19003KT 8000 NSC 03/M02 Q1021
Conditions at: SLCB (COCHABAMBA/JORGE, BO) observed 1000 UTC 25 June 2019
Temperature: 3.0°C (37°F)
Dewpoint: -2.0°C (28°F) [RH = 70%]
Pressure (altimeter): 30.15 inches Hg (1021.0 mb)
Winds: from the S (190 degrees) at 3 MPH (3 knots; 1.5 m/s)
Visibility: 5 miles ( 8 km)
Ceiling: at least 12,000 feet AGL
Clouds: sky clear below 12,000 feet AGL
Weather: no significant weather observed at this time

METAR text: SLCB 250900Z 00000KT 8000 NSC 05/M03 Q1020
Conditions at: SLCB (COCHABAMBA/JORGE, BO) observed 0900 UTC 25 June 2019
Temperature: 5.0°C (41°F)
Dewpoint: -3.0°C (27°F) [RH = 56%]
Pressure (altimeter): 30.12 inches Hg (1020.0 mb)
Winds: calm
Visibility: 5 miles ( 8 km)
Ceiling: at least 12,000 feet AGL
Clouds: sky clear below 12,000 feet AGL
Weather: no significant weather observed at this time

METAR text: SLCB 250800Z 00000KT 9999 NSC 03/M02 Q1020
Conditions at: SLCB (COCHABAMBA/JORGE, BO) observed 0800 UTC 25 June 2019
Temperature: 3.0°C (37°F)
Dewpoint: -2.0°C (28°F) [RH = 70%]
Pressure (altimeter): 30.12 inches Hg (1020.0 mb)
Winds: calm
Visibility: 6 or more miles (10+ km)
Ceiling: at least 12,000 feet AGL
Clouds: sky clear below 12,000 feet AGL
Weather: no significant weather observed at this time

METAR text: SLCB 250700Z 00000KT 9999 NSC 03/M02 Q1020
Conditions at: SLCB (COCHABAMBA/JORGE, BO) observed 0700 UTC 25 June 2019
Temperature: 3.0°C (37°F)
Dewpoint: -2.0°C (28°F) [RH = 70%]
Pressure (altimeter): 30.12 inches Hg (1020.0 mb)
Winds: calm
Visibility: 6 or more miles (10+ km)
Ceiling: at least 12,000 feet AGL
Clouds: sky clear below 12,000 feet AGL
Weather: no significant weather observed at this time

METAR text: SLCB 250600Z 00000KT 9999 NSC 05/M03 Q1020
Conditions at: SLCB (COCHABAMBA/JORGE, BO) observed 0600 UTC 25 June 2019
Temperature: 5.0°C (41°F)
Dewpoint: -3.0°C (27°F) [RH = 56%]
Pressure (altimeter): 30.12 inches Hg (1020.0 mb)
Winds: calm
Visibility: 6 or more miles (10+ km)
Ceiling: at least 12,000 feet AGL
Clouds: sky clear below 12,000 feet AGL
Weather: no significant weather observed at this time

METAR text: SLCB 250500Z 00000KT 9999 NSC 06/M02 Q1020
Conditions at: SLCB (COCHABAMBA/JORGE, BO) observed 0500 UTC 25 June 2019
Temperature: 6.0°C (43°F)
Dewpoint: -2.0°C (28°F) [RH = 56%]
Pressure (altimeter): 30.12 inches Hg (1020.0 mb)
Winds: calm
Visibility: 6 or more miles (10+ km)
Ceiling: at least 12,000 feet AGL
Clouds: sky clear below 12,000 feet AGL
Weather: no significant weather observed at this time

METAR text: SLCB 250400Z 16003KT 9999 NSC 08/M02 Q1020
Conditions at: SLCB (COCHABAMBA/JORGE, BO) observed 0400 UTC 25 June 2019
Temperature: 8.0°C (46°F)
Dewpoint: -2.0°C (28°F) [RH = 49%]
Pressure (altimeter): 30.12 inches Hg (1020.0 mb)
Winds: from the SSE (160 degrees) at 3 MPH (3 knots; 1.5 m/s)
Visibility: 6 or more miles (10+ km)
Ceiling: at least 12,000 feet AGL
Clouds: sky clear below 12,000 feet AGL
Weather: no significant weather observed at this time

METAR text: SLCB 250300Z 14004KT 9999 NSC 12/M03 Q1020
Conditions at: SLCB (COCHABAMBA/JORGE, BO) observed 0300 UTC 25 June 2019
Temperature: 12.0°C (54°F)
Dewpoint: -3.0°C (27°F) [RH = 35%]
Pressure (altimeter): 30.12 inches Hg (1020.0 mb)
Winds: from the SE (140 degrees) at 5 MPH (4 knots; 2.1 m/s)
Visibility: 6 or more miles (10+ km)
Ceiling: at least 12,000 feet AGL
Clouds: sky clear below 12,000 feet AGL
Weather: no significant weather observed at this time

METAR text: SLCB 250200Z 00000KT 9999 NSC 10/M03 Q1020
Conditions at: SLCB (COCHABAMBA/JORGE, BO) observed 0200 UTC 25 June 2019
Temperature: 10.0°C (50°F)
Dewpoint: -3.0°C (27°F) [RH = 40%]
Pressure (altimeter): 30.12 inches Hg (1020.0 mb)
Winds: calm
Visibility: 6 or more miles (10+ km)
Ceiling: at least 12,000 feet AGL
Clouds: sky clear below 12,000 feet AGL
Weather: no significant weather observed at this time

METAR text: SLCB 250100Z 13003KT 9999 NSC 11/M02 Q1020
Conditions at: SLCB (COCHABAMBA/JORGE, BO) observed 0100 UTC 25 June 2019
Temperature: 11.0°C (52°F)
Dewpoint: -2.0°C (28°F) [RH = 40%]
Pressure (altimeter): 30.12 inches Hg (1020.0 mb)
Winds: from the SE (130 degrees) at 3 MPH (3 knots; 1.5 m/s)
Visibility: 6 or more miles (10+ km)
Ceiling: at least 12,000 feet AGL
Clouds: sky clear below 12,000 feet AGL
Weather: no significant weather observed at this time

METAR text: SLCB 250000Z 13003KT 9999 NSC 15/M04 Q1019
Conditions at: SLCB (COCHABAMBA/JORGE, BO) observed 0000 UTC 25 June 2019
Temperature: 15.0°C (59°F)
Dewpoint: -4.0°C (25°F) [RH = 27%]
Pressure (altimeter): 30.09 inches Hg (1019.0 mb)
Winds: from the SE (130 degrees) at 3 MPH (3 knots; 1.5 m/s)
Visibility: 6 or more miles (10+ km)
Ceiling: at least 12,000 feet AGL
Clouds: sky clear below 12,000 feet AGL
Weather: no significant weather observed at this time

METAR text: SLCB 242300Z 14004KT 8000 NSC 16/M09 Q1019
Conditions at: SLCB (COCHABAMBA/JORGE, BO) observed 2300 UTC 24 June 2019
Temperature: 16.0°C (61°F)
Dewpoint: -9.0°C (16°F) [RH = 17%]
Pressure (altimeter): 30.09 inches Hg (1019.0 mb)
Winds: from the SE (140 degrees) at 5 MPH (4 knots; 2.1 m/s)
Visibility: 5 miles ( 8 km)
Ceiling: at least 12,000 feet AGL
Clouds: sky clear below 12,000 feet AGL
Weather: no significant weather observed at this time

METAR text: SLCB 242200Z 25003KT 8000 NSC 20/M09 Q1018
Conditions at: SLCB (COCHABAMBA/JORGE, BO) observed 2200 UTC 24 June 2019
Temperature: 20.0°C (68°F)
Dewpoint: -9.0°C (16°F) [RH = 13%]
Pressure (altimeter): 30.06 inches Hg (1018.0 mb)
Winds: from the WSW (250 degrees) at 3 MPH (3 knots; 1.5 m/s)
Visibility: 5 miles ( 8 km)
Ceiling: at least 12,000 feet AGL
Clouds: sky clear below 12,000 feet AGL
Weather: no significant weather observed at this time

METAR text: SLCB 242100Z 28003KT 6000 NSC 26/M14 Q1018
Conditions at: SLCB (COCHABAMBA/JORGE, BO) observed 2100 UTC 24 June 2019
Temperature: 26.0°C (79°F)
Dewpoint: -14.0°C ( 7°F) [RH =  6%]
Pressure (altimeter): 30.06 inches Hg (1018.0 mb)
Winds: from the W (280 degrees) at 3 MPH (3 knots; 1.5 m/s)
Visibility: 4 miles ( 6 km)
Ceiling: at least 12,000 feet AGL
Clouds: sky clear below 12,000 feet AGL
Weather: no significant weather observed at this time

METAR text: SLCB 242000Z 29004KT 6000 NSC 26/M12 Q1019
Conditions at: SLCB (COCHABAMBA/JORGE, BO) observed 2000 UTC 24 June 2019
Temperature: 26.0°C (79°F)
Dewpoint: -12.0°C (10°F) [RH =  7%]
Pressure (altimeter): 30.09 inches Hg (1019.0 mb)
Winds: from the WNW (290 degrees) at 5 MPH (4 knots; 2.1 m/s)
Visibility: 4 miles ( 6 km)
Ceiling: at least 12,000 feet AGL
Clouds: sky clear below 12,000 feet AGL
Weather: no significant weather observed at this time

METAR text: SLCB 241900Z 32003KT 5000 FU NSC 25/M09 Q1019
Conditions at: SLCB (COCHABAMBA/JORGE, BO) observed 1900 UTC 24 June 2019
Temperature: 25.0°C (77°F)
Dewpoint: -9.0°C (16°F) [RH = 10%]
Pressure (altimeter): 30.09 inches Hg (1019.0 mb)
Winds: from the NW (320 degrees) at 3 MPH (3 knots; 1.5 m/s)
Visibility: 3 miles ( 5 km)
Ceiling: at least 12,000 feet AGL
Clouds: sky clear below 12,000 feet AGL
Weather: FU  (smoke)

METAR text: SLCB 241800Z 22003KT 5000 FU NSC 24/M09 Q1021
Conditions at: SLCB (COCHABAMBA/JORGE, BO) observed 1800 UTC 24 June 2019
Temperature: 24.0°C (75°F)
Dewpoint: -9.0°C (16°F) [RH = 10%]
Pressure (altimeter): 30.15 inches Hg (1021.0 mb)
Winds: from the SW (220 degrees) at 3 MPH (3 knots; 1.5 m/s)
Visibility: 3 miles ( 5 km)
Ceiling: at least 12,000 feet AGL
Clouds: sky clear below 12,000 feet AGL
Weather: FU  (smoke)

METAR text: SLCB 241700Z 32003KT 5000 FU NSC 24/M09 Q1023
Conditions at: SLCB (COCHABAMBA/JORGE, BO) observed 1700 UTC 24 June 2019
Temperature: 24.0°C (75°F)
Dewpoint: -9.0°C (16°F) [RH = 10%]
Pressure (altimeter): 30.21 inches Hg (1023.0 mb)
Winds: from the NW (320 degrees) at 3 MPH (3 knots; 1.5 m/s)
Visibility: 3 miles ( 5 km)
Ceiling: at least 12,000 feet AGL
Clouds: sky clear below 12,000 feet AGL
Weather: FU  (smoke)

METAR text: SLCB 241600Z 29004KT 4000 FU NSC 21/M12 Q1024
Conditions at: SLCB (COCHABAMBA/JORGE, BO) observed 1600 UTC 24 June 2019
Temperature: 21.0°C (70°F)
Dewpoint: -12.0°C (10°F) [RH = 10%]
Pressure (altimeter): 30.24 inches Hg (1024.0 mb)
Winds: from the WNW (290 degrees) at 5 MPH (4 knots; 2.1 m/s)
Visibility: 2.49 miles (4.01 km)
Ceiling: at least 12,000 feet AGL
Clouds: sky clear below 12,000 feet AGL
Weather: FU  (smoke)

METAR text: SLCB 241500Z 00000KT 3000 FU NSC 17/M10 Q1026
Conditions at: SLCB (COCHABAMBA/JORGE, BO) observed 1500 UTC 24 June 2019
Temperature: 17.0°C (63°F)
Dewpoint: -10.0°C (14°F) [RH = 15%]
Pressure (altimeter): 30.30 inches Hg (1026.0 mb)
Winds: calm
Visibility: 1.86 miles (2.99 km)
Ceiling: at least 12,000 feet AGL
Clouds: sky clear below 12,000 feet AGL
Weather: FU  (smoke)

METAR text: SLCB 241400Z 00000KT 2500 FU NSC 13/M07 Q1027
Conditions at: SLCB (COCHABAMBA/JORGE, BO) observed 1400 UTC 24 June 2019
Temperature: 13.0°C (55°F)
Dewpoint: -7.0°C (19°F) [RH = 24%]
Pressure (altimeter): 30.32 inches Hg (1027.0 mb)
Winds: calm
Visibility: 1.55 miles (2.49 km)
Ceiling: at least 12,000 feet AGL
Clouds: sky clear below 12,000 feet AGL
Weather: FU  (smoke)

METAR text: SLCB 241300Z 00000KT 2500 FU NSC 07/M05 Q1027
Conditions at: SLCB (COCHABAMBA/JORGE, BO) observed 1300 UTC 24 June 2019
Temperature: 7.0°C (45°F)
Dewpoint: -5.0°C (23°F) [RH = 42%]
Pressure (altimeter): 30.32 inches Hg (1027.0 mb)
Winds: calm
Visibility: 1.55 miles (2.49 km)
Ceiling: at least 12,000 feet AGL
Clouds: sky clear below 12,000 feet AGL
Weather: FU  (smoke)

METAR text: SLCB 241200Z 00000KT 2500 FU NSC 04/M03 Q1027
Conditions at: SLCB (COCHABAMBA/JORGE, BO) observed 1200 UTC 24 June 2019
Temperature: 4.0°C (39°F)
Dewpoint: -3.0°C (27°F) [RH = 60%]
Pressure (altimeter): 30.32 inches Hg (1027.0 mb)
Winds: calm
Visibility: 1.55 miles (2.49 km)
Ceiling: at least 12,000 feet AGL
Clouds: sky clear below 12,000 feet AGL
Weather: FU  (smoke)

METAR text: SLCB 241123Z 00000KT 2500 FU NSC 00/M05 Q1027
Conditions at: SLCB (COCHABAMBA/JORGE, BO) observed 1123 UTC 24 June 2019
Temperature: 0.0°C (32°F)
Dewpoint: -5.0°C (23°F) [RH = 69%]
Pressure (altimeter): 30.32 inches Hg (1027.0 mb)
Winds: calm
Visibility: 1.55 miles (2.49 km)
Ceiling: at least 12,000 feet AGL
Clouds: sky clear below 12,000 feet AGL
Weather: FU  (smoke)

METAR text: SLCB 241100Z 00000KT 2000 FU NSC 00/M05 Q1027
Conditions at: SLCB (COCHABAMBA/JORGE, BO) observed 1100 UTC 24 June 2019
Temperature: 0.0°C (32°F)
Dewpoint: -5.0°C (23°F) [RH = 69%]
Pressure (altimeter): 30.32 inches Hg (1027.0 mb)
Winds: calm
Visibility: 1.24 miles (2.00 km)
Ceiling: at least 12,000 feet AGL
Clouds: sky clear below 12,000 feet AGL
Weather: FU  (smoke)

METAR text: SLCB 241000Z 00000KT 5000 FU NSC 01/M05 Q1026
Conditions at: SLCB (COCHABAMBA/JORGE, BO) observed 1000 UTC 24 June 2019
Temperature: 1.0°C (34°F)
Dewpoint: -5.0°C (23°F) [RH = 64%]
Pressure (altimeter): 30.30 inches Hg (1026.0 mb)
Winds: calm
Visibility: 3 miles ( 5 km)
Ceiling: at least 12,000 feet AGL
Clouds: sky clear below 12,000 feet AGL
Weather: FU  (smoke)

METAR text: SLCB 240900Z 00000KT 5000 FU NSC 02/M05 Q1025
Conditions at: SLCB (COCHABAMBA/JORGE, BO) observed 0900 UTC 24 June 2019
Temperature: 2.0°C (36°F)
Dewpoint: -5.0°C (23°F) [RH = 60%]
Pressure (altimeter): 30.27 inches Hg (1025.0 mb)
Winds: calm
Visibility: 3 miles ( 5 km)
Ceiling: at least 12,000 feet AGL
Clouds: sky clear below 12,000 feet AGL
Weather: FU  (smoke)

METAR text: SLCB 240800Z 00000KT 5000 FU NSC 03/M05 Q1025
Conditions at: SLCB (COCHABAMBA/JORGE, BO) observed 0800 UTC 24 June 2019
Temperature: 3.0°C (37°F)
Dewpoint: -5.0°C (23°F) [RH = 56%]
Pressure (altimeter): 30.27 inches Hg (1025.0 mb)
Winds: calm
Visibility: 3 miles ( 5 km)
Ceiling: at least 12,000 feet AGL
Clouds: sky clear below 12,000 feet AGL
Weather: FU  (smoke)

METAR text: SLCB 240700Z 27003KT 6000 NSC 04/M04 Q1025
Conditions at: SLCB (COCHABAMBA/JORGE, BO) observed 0700 UTC 24 June 2019
Temperature: 4.0°C (39°F)
Dewpoint: -4.0°C (25°F) [RH = 56%]
Pressure (altimeter): 30.27 inches Hg (1025.0 mb)
Winds: from the W (270 degrees) at 3 MPH (3 knots; 1.5 m/s)
Visibility: 4 miles ( 6 km)
Ceiling: at least 12,000 feet AGL
Clouds: sky clear below 12,000 feet AGL
Weather: no significant weather observed at this time

METAR text: SLCB 240600Z 00000KT 6000 NSC 05/M04 Q1026
Conditions at: SLCB (COCHABAMBA/JORGE, BO) observed 0600 UTC 24 June 2019
Temperature: 5.0°C (41°F)
Dewpoint: -4.0°C (25°F) [RH = 52%]
Pressure (altimeter): 30.30 inches Hg (1026.0 mb)
Winds: calm
Visibility: 4 miles ( 6 km)
Ceiling: at least 12,000 feet AGL
Clouds: sky clear below 12,000 feet AGL
Weather: no significant weather observed at this time

METAR text: SLCB 240500Z 34003KT 6000 NSC 05/M04 Q1026
Conditions at: SLCB (COCHABAMBA/JORGE, BO) observed 0500 UTC 24 June 2019
Temperature: 5.0°C (41°F)
Dewpoint: -4.0°C (25°F) [RH = 52%]
Pressure (altimeter): 30.30 inches Hg (1026.0 mb)
Winds: from the NNW (340 degrees) at 3 MPH (3 knots; 1.5 m/s)
Visibility: 4 miles ( 6 km)
Ceiling: at least 12,000 feet AGL
Clouds: sky clear below 12,000 feet AGL
Weather: no significant weather observed at this time

METAR text: SLCB 240400Z 00000KT 6000 NSC 05/M04 Q1025
Conditions at: SLCB (COCHABAMBA/JORGE, BO) observed 0400 UTC 24 June 2019
Temperature: 5.0°C (41°F)
Dewpoint: -4.0°C (25°F) [RH = 52%]
Pressure (altimeter): 30.27 inches Hg (1025.0 mb)
Winds: calm
Visibility: 4 miles ( 6 km)
Ceiling: at least 12,000 feet AGL
Clouds: sky clear below 12,000 feet AGL
Weather: no significant weather observed at this time

METAR text: SLCB 240300Z 21003KT 6000 NSC 07/M04 Q1025
Conditions at: SLCB (COCHABAMBA/JORGE, BO) observed 0300 UTC 24 June 2019
Temperature: 7.0°C (45°F)
Dewpoint: -4.0°C (25°F) [RH = 45%]
Pressure (altimeter): 30.27 inches Hg (1025.0 mb)
Winds: from the SSW (210 degrees) at 3 MPH (3 knots; 1.5 m/s)
Visibility: 4 miles ( 6 km)
Ceiling: at least 12,000 feet AGL
Clouds: sky clear below 12,000 feet AGL
Weather: no significant weather observed at this time

METAR text: SLCB 240200Z 24003KT 7000 NSC 08/M05 Q1025
Conditions at: SLCB (COCHABAMBA/JORGE, BO) observed 0200 UTC 24 June 2019
Temperature: 8.0°C (46°F)
Dewpoint: -5.0°C (23°F) [RH = 39%]
Pressure (altimeter): 30.27 inches Hg (1025.0 mb)
Winds: from the WSW (240 degrees) at 3 MPH (3 knots; 1.5 m/s)
Visibility: 4 miles ( 7 km)
Ceiling: at least 12,000 feet AGL
Clouds: sky clear below 12,000 feet AGL
Weather: no significant weather observed at this time

METAR text: SLCB 240100Z 11003KT 7000 NSC 12/M07 Q1025
Conditions at: SLCB (COCHABAMBA/JORGE, BO) observed 0100 UTC 24 June 2019
Temperature: 12.0°C (54°F)
Dewpoint: -7.0°C (19°F) [RH = 26%]
Pressure (altimeter): 30.27 inches Hg (1025.0 mb)
Winds: from the ESE (110 degrees) at 3 MPH (3 knots; 1.5 m/s)
Visibility: 4 miles ( 7 km)
Ceiling: at least 12,000 feet AGL
Clouds: sky clear below 12,000 feet AGL
Weather: no significant weather observed at this time

Forecast for: SLCB (COCHABAMBA/JORGE, BO)
Text: TAF SLCB 251000Z 2512/2612 00000KT 5000 FU NSC TX26/2519Z TN02/2611Z
Forecast period: 1200 to 1400 UTC 25 June 2019
Forecast type: FROM: standard forecast or significant change
Winds: calm
Visibility: 3 miles (5 km)
Ceiling: unknown
Clouds: missing
Weather: FU  (smoke)
Text: BECMG 2514/2516 26010KT 9999 NSW
Forecast period: 1400 UTC 25 June 2019 to 0200 UTC 26 June 2019
Forecast type: BECOMING: Conditions expected to become as follows by 1600 UTC 25 June 2019
Winds: from the W (260 degrees) at 12 MPH (10 knots; 5.1 m/s)
Visibility: 6 or more miles 10+ km)
Ceiling: unknown
Clouds: missing
Weather: NSW  (no significant weather)
Text: BECMG 2602/2604 00000KT FEW027 SCT070
Forecast period: 0200 to 1200 UTC 26 June 2019
Forecast type: BECOMING: Conditions expected to become as follows by 0400 UTC 26 June 2019
Winds: calm
Visibility: 6 or more miles 10+ km)
Ceiling: at least 12,000 feet AGL
Clouds: few clouds at 2700 feet AGL
scattered clouds at 7000 feet AGL
Weather: NSW  (no significant weather)